DEMMA EDNY-EDNY
Flight info
| Callsign | DEMMA |
|---|---|
| Flight time | N/A |
| Altitude | 5500 |
| Route | VFR |
| Aircraft | PA28/L-SDE3/S |
Departure
| Time | 2026-05-01 10:15 |
|---|---|
| Airport | Bodensee Airport Friedrichshafen (EDNY) |
Arrival
| Time | N/A |
|---|---|
| Airport | Bodensee Airport Friedrichshafen (EDNY) |
| Time | Latitude | Longitude | Altitude | Speed | Heading |
|---|---|---|---|---|---|
| 2026-05-01 10:01 | 47.67269 | 9.52115 | 1371 ft | 0 kts | 181° |
| 2026-05-01 10:12 | 47.67268 | 9.52115 | 1371 ft | 1 kts | 189° |
| 2026-05-01 10:13 | 47.67283 | 9.52099 | 1371 ft | 7 kts | 28° |
| 2026-05-01 10:13 | 47.67308 | 9.52105 | 1371 ft | 0 kts | 335° |
| 2026-05-01 10:13 | 47.67323 | 9.52102 | 1370 ft | 7 kts | 9° |
| 2026-05-01 10:14 | 47.67416 | 9.52112 | 1370 ft | 1 kts | 327° |
| 2026-05-01 10:14 | 47.67458 | 9.52075 | 1369 ft | 13 kts | 328° |
| 2026-05-01 10:14 | 47.67463 | 9.52003 | 1368 ft | 0 kts | 239° |
| 2026-05-01 10:14 | 47.67458 | 9.51990 | 1368 ft | 11 kts | 240° |
| 2026-05-01 10:15 | 47.67332 | 9.51666 | 1370 ft | 61 kts | 240° |
| 2026-05-01 10:15 | 47.67064 | 9.50975 | 1464 ft | 86 kts | 239° |
| 2026-05-01 10:15 | 47.66784 | 9.50232 | 1771 ft | 82 kts | 240° |
| 2026-05-01 10:15 | 47.66476 | 9.49483 | 2042 ft | 85 kts | 219° |
| 2026-05-01 10:16 | 47.65952 | 9.49539 | 2328 ft | 86 kts | 141° |
| 2026-05-01 10:16 | 47.65436 | 9.50197 | 2439 ft | 108 kts | 134° |
| 2026-05-01 10:16 | 47.64314 | 9.52004 | 2707 ft | 129 kts | 127° |
| 2026-05-01 10:17 | 47.63751 | 9.53073 | 2744 ft | 130 kts | 124° |
| 2026-05-01 10:17 | 47.62684 | 9.55215 | 2710 ft | 131 kts | 124° |
| 2026-05-01 10:17 | 47.62157 | 9.56321 | 2636 ft | 132 kts | 123° |
| 2026-05-01 10:18 | 47.61003 | 9.58473 | 2559 ft | 135 kts | 127° |
| 2026-05-01 10:18 | 47.60427 | 9.59550 | 2541 ft | 132 kts | 125° |
| 2026-05-01 10:18 | 47.59861 | 9.60600 | 2608 ft | 129 kts | 128° |
| 2026-05-01 10:19 | 47.59303 | 9.61611 | 2615 ft | 129 kts | 127° |
| 2026-05-01 10:19 | 47.58747 | 9.62669 | 2597 ft | 129 kts | 127° |
| 2026-05-01 10:19 | 47.58170 | 9.63674 | 2537 ft | 133 kts | 130° |
| 2026-05-01 10:20 | 47.56941 | 9.65757 | 2447 ft | 133 kts | 131° |
| 2026-05-01 10:20 | 47.56355 | 9.66802 | 2453 ft | 132 kts | 128° |
| 2026-05-01 10:20 | 47.55792 | 9.67861 | 2593 ft | 129 kts | 130° |
| 2026-05-01 10:20 | 47.55098 | 9.68708 | 2636 ft | 132 kts | 152° |
| 2026-05-01 10:21 | 47.54235 | 9.69148 | 2668 ft | 130 kts | 169° |
| 2026-05-01 10:21 | 47.52590 | 9.68609 | 2632 ft | 127 kts | 231° |
| 2026-05-01 10:21 | 47.52053 | 9.67601 | 2632 ft | 123 kts | 234° |
| 2026-05-01 10:22 | 47.50983 | 9.65733 | 2313 ft | 117 kts | 232° |
| 2026-05-01 10:22 | 47.49916 | 9.64048 | 2129 ft | 108 kts | 227° |
| 2026-05-01 10:23 | 47.49398 | 9.63292 | 2242 ft | 103 kts | 228° |
| 2026-05-01 10:23 | 47.48363 | 9.61683 | 2372 ft | 106 kts | 234° |
| 2026-05-01 10:23 | 47.48057 | 9.60769 | 2150 ft | 99 kts | 262° |
| 2026-05-01 10:24 | 47.48157 | 9.58958 | 1822 ft | 83 kts | 283° |
| 2026-05-01 10:24 | 47.48375 | 9.57291 | 1406 ft | 76 kts | 278° |
| 2026-05-01 10:25 | 47.48513 | 9.55979 | 1312 ft | 50 kts | 279° |
| 2026-05-01 10:25 | 47.48685 | 9.54554 | 1597 ft | 81 kts | 283° |
| 2026-05-01 10:26 | 47.48813 | 9.53718 | 1903 ft | 85 kts | 283° |
| 2026-05-01 10:26 | 47.48936 | 9.52844 | 2272 ft | 87 kts | 282° |
| 2026-05-01 10:26 | 47.49748 | 9.51434 | 2486 ft | 115 kts | 358° |
| 2026-05-01 10:27 | 47.51141 | 9.52338 | 2263 ft | 110 kts | 58° |
| 2026-05-01 10:27 | 47.51124 | 9.54487 | 2219 ft | 106 kts | 104° |
| 2026-05-01 10:28 | 47.50916 | 9.55532 | 2176 ft | 105 kts | 109° |
| 2026-05-01 10:28 | 47.50401 | 9.57370 | 2325 ft | 92 kts | 112° |
| 2026-05-01 10:28 | 47.50149 | 9.58228 | 2356 ft | 91 kts | 113° |
| 2026-05-01 10:29 | 47.49725 | 9.60031 | 2364 ft | 93 kts | 105° |
| 2026-05-01 10:29 | 47.49275 | 9.60582 | 2332 ft | 95 kts | 186° |
| 2026-05-01 10:30 | 47.48100 | 9.59952 | 2115 ft | 76 kts | 237° |
| 2026-05-01 10:30 | 47.48253 | 9.58353 | 1638 ft | 89 kts | 278° |
| 2026-05-01 10:31 | 47.48437 | 9.56694 | 1314 ft | 69 kts | 279° |
| 2026-05-01 10:31 | 47.48567 | 9.55472 | 1352 ft | 74 kts | 279° |
| 2026-05-01 10:32 | 47.48833 | 9.53864 | 1804 ft | 88 kts | 285° |
| 2026-05-01 10:32 | 47.48987 | 9.52959 | 2087 ft | 95 kts | 283° |
| 2026-05-01 10:32 | 47.50073 | 9.51811 | 2261 ft | 129 kts | 10° |
| 2026-05-01 10:33 | 47.50774 | 9.53985 | 2395 ft | 139 kts | 107° |
| 2026-05-01 10:33 | 47.50231 | 9.56446 | 2184 ft | 108 kts | 101° |
| 2026-05-01 10:34 | 47.50113 | 9.57504 | 2183 ft | 102 kts | 96° |
| 2026-05-01 10:34 | 47.50093 | 9.58553 | 2179 ft | 102 kts | 87° |
| 2026-05-01 10:34 | 47.49995 | 9.59593 | 2150 ft | 104 kts | 115° |
| 2026-05-01 10:35 | 47.48717 | 9.59920 | 2008 ft | 94 kts | 195° |
| 2026-05-01 10:35 | 47.48240 | 9.59478 | 1876 ft | 79 kts | 249° |
| 2026-05-01 10:35 | 47.48215 | 9.58687 | 1722 ft | 81 kts | 281° |
| 2026-05-01 10:35 | 47.48308 | 9.57916 | 1564 ft | 76 kts | 278° |
| 2026-05-01 10:36 | 47.48464 | 9.56441 | 1310 ft | 61 kts | 279° |
| 2026-05-01 10:36 | 47.48531 | 9.55811 | 1316 ft | 77 kts | 279° |
| 2026-05-01 10:36 | 47.48621 | 9.54968 | 1557 ft | 87 kts | 280° |
| 2026-05-01 10:37 | 47.48724 | 9.54090 | 1900 ft | 86 kts | 280° |
| 2026-05-01 10:37 | 47.49094 | 9.52301 | 2280 ft | 98 kts | 318° |
| 2026-05-01 10:37 | 47.49764 | 9.52112 | 2493 ft | 104 kts | 15° |
| 2026-05-01 10:38 | 47.50315 | 9.52732 | 2814 ft | 100 kts | 60° |
| 2026-05-01 10:38 | 47.50343 | 9.53747 | 3042 ft | 105 kts | 102° |
| 2026-05-01 10:38 | 47.50171 | 9.54783 | 3220 ft | 102 kts | 103° |
| 2026-05-01 10:38 | 47.49951 | 9.55791 | 3338 ft | 103 kts | 110° |
| 2026-05-01 10:39 | 47.49655 | 9.56797 | 3503 ft | 109 kts | 115° |
| 2026-05-01 10:39 | 47.49255 | 9.57768 | 3634 ft | 111 kts | 129° |
| 2026-05-01 10:39 | 47.48670 | 9.58520 | 3805 ft | 109 kts | 148° |
| 2026-05-01 10:39 | 47.47992 | 9.58965 | 4017 ft | 105 kts | 155° |
| 2026-05-01 10:40 | 47.47311 | 9.59329 | 4230 ft | 104 kts | 162° |
| 2026-05-01 10:40 | 47.46608 | 9.59665 | 4416 ft | 108 kts | 160° |
| 2026-05-01 10:40 | 47.45893 | 9.60043 | 4568 ft | 113 kts | 159° |
| 2026-05-01 10:40 | 47.45195 | 9.60412 | 4845 ft | 102 kts | 160° |
| 2026-05-01 10:41 | 47.44518 | 9.60802 | 5065 ft | 107 kts | 159° |
| 2026-05-01 10:41 | 47.43832 | 9.61175 | 5328 ft | 103 kts | 162° |
| 2026-05-01 10:41 | 47.42412 | 9.61798 | 5675 ft | 111 kts | 161° |
| 2026-05-01 10:42 | 47.41603 | 9.62148 | 5576 ft | 129 kts | 162° |
| 2026-05-01 10:42 | 47.40721 | 9.62534 | 5512 ft | 135 kts | 162° |
| 2026-05-01 10:42 | 47.39809 | 9.62932 | 5431 ft | 137 kts | 163° |
| 2026-05-01 10:42 | 47.38887 | 9.63279 | 5375 ft | 136 kts | 167° |
| 2026-05-01 10:43 | 47.37989 | 9.63328 | 5496 ft | 126 kts | 189° |
| 2026-05-01 10:43 | 47.37184 | 9.63006 | 5704 ft | 115 kts | 198° |
| 2026-05-01 10:43 | 47.36437 | 9.62612 | 5828 ft | 116 kts | 200° |
| 2026-05-01 10:43 | 47.35654 | 9.62198 | 5836 ft | 124 kts | 199° |
| 2026-05-01 10:44 | 47.34826 | 9.61779 | 5855 ft | 127 kts | 199° |
| 2026-05-01 10:44 | 47.33988 | 9.61353 | 5898 ft | 128 kts | 199° |
| 2026-05-01 10:44 | 47.33147 | 9.60923 | 5904 ft | 125 kts | 199° |
| 2026-05-01 10:44 | 47.32341 | 9.60511 | 5901 ft | 121 kts | 199° |
| 2026-05-01 10:45 | 47.31555 | 9.60107 | 5895 ft | 119 kts | 199° |
| 2026-05-01 10:45 | 47.30761 | 9.60009 | 5890 ft | 116 kts | 158° |
| 2026-05-01 10:45 | 47.30044 | 9.60538 | 5895 ft | 115 kts | 153° |
| 2026-05-01 10:45 | 47.29325 | 9.61055 | 5892 ft | 114 kts | 153° |
| 2026-05-01 10:46 | 47.28615 | 9.61571 | 5895 ft | 113 kts | 153° |
| 2026-05-01 10:46 | 47.27907 | 9.62082 | 5893 ft | 113 kts | 153° |
| 2026-05-01 10:46 | 47.27191 | 9.62571 | 5890 ft | 114 kts | 161° |
| 2026-05-01 10:46 | 47.26404 | 9.62540 | 5885 ft | 114 kts | 195° |
| 2026-05-01 10:47 | 47.25724 | 9.61918 | 5890 ft | 120 kts | 215° |
| 2026-05-01 10:47 | 47.25003 | 9.61192 | 5891 ft | 131 kts | 214° |
| 2026-05-01 10:47 | 47.24289 | 9.60350 | 5894 ft | 136 kts | 225° |
| 2026-05-01 10:47 | 47.23590 | 9.59392 | 5900 ft | 139 kts | 222° |
| 2026-05-01 10:48 | 47.22873 | 9.58433 | 5901 ft | 140 kts | 222° |
| 2026-05-01 10:48 | 47.22151 | 9.57467 | 5901 ft | 140 kts | 222° |
| 2026-05-01 10:48 | 47.21425 | 9.56495 | 5900 ft | 142 kts | 222° |
| 2026-05-01 10:48 | 47.20691 | 9.55515 | 5895 ft | 143 kts | 222° |
| 2026-05-01 10:49 | 47.20206 | 9.54868 | 5894 ft | 141 kts | 222° |
| 2026-05-01 10:49 | 47.19478 | 9.53896 | 5898 ft | 141 kts | 223° |
| 2026-05-01 10:49 | 47.18746 | 9.52927 | 5887 ft | 141 kts | 222° |
| 2026-05-01 10:49 | 47.17875 | 9.52317 | 5883 ft | 141 kts | 195° |
| 2026-05-01 10:50 | 47.16922 | 9.51944 | 5884 ft | 143 kts | 195° |
| 2026-05-01 10:50 | 47.15951 | 9.51555 | 5867 ft | 144 kts | 195° |
| 2026-05-01 10:50 | 47.14982 | 9.51169 | 5865 ft | 144 kts | 195° |
| 2026-05-01 10:50 | 47.14011 | 9.50784 | 5863 ft | 144 kts | 195° |
| 2026-05-01 10:51 | 47.13045 | 9.50402 | 5861 ft | 143 kts | 195° |
| 2026-05-01 10:51 | 47.12117 | 9.50022 | 6000 ft | 136 kts | 198° |
| 2026-05-01 10:51 | 47.11188 | 9.49602 | 6035 ft | 142 kts | 197° |
| 2026-05-01 10:51 | 47.10259 | 9.49204 | 6226 ft | 136 kts | 197° |
| 2026-05-01 10:52 | 47.09129 | 9.48714 | 6593 ft | 122 kts | 197° |
| 2026-05-01 10:52 | 47.08584 | 9.48485 | 6737 ft | 120 kts | 193° |
| 2026-05-01 10:52 | 47.07753 | 9.48311 | 6905 ft | 121 kts | 186° |
| 2026-05-01 10:52 | 47.06916 | 9.48200 | 7098 ft | 121 kts | 183° |
| 2026-05-01 10:53 | 47.06118 | 9.48133 | 7209 ft | 117 kts | 180° |
| 2026-05-01 10:53 | 47.05310 | 9.48149 | 7134 ft | 115 kts | 175° |
| 2026-05-01 10:53 | 47.04457 | 9.48237 | 7075 ft | 130 kts | 175° |
| 2026-05-01 10:53 | 47.03562 | 9.48352 | 7257 ft | 125 kts | 172° |
| 2026-05-01 10:54 | 47.02731 | 9.48553 | 7540 ft | 115 kts | 169° |
| 2026-05-01 10:54 | 47.01950 | 9.48735 | 7774 ft | 113 kts | 167° |
| 2026-05-01 10:54 | 47.01183 | 9.48934 | 8018 ft | 112 kts | 165° |
| 2026-05-01 10:54 | 47.00397 | 9.49151 | 8129 ft | 121 kts | 165° |
| 2026-05-01 10:55 | 46.99561 | 9.49408 | 8215 ft | 128 kts | 164° |
| 2026-05-01 10:55 | 46.98670 | 9.49692 | 8215 ft | 131 kts | 165° |
| 2026-05-01 10:55 | 46.97774 | 9.49976 | 8202 ft | 129 kts | 165° |
| 2026-05-01 10:55 | 46.96920 | 9.50239 | 8214 ft | 127 kts | 165° |
| 2026-05-01 10:56 | 46.96043 | 9.50506 | 8208 ft | 131 kts | 166° |
| 2026-05-01 10:56 | 46.95151 | 9.50780 | 8213 ft | 130 kts | 166° |
| 2026-05-01 10:56 | 46.94306 | 9.51036 | 8233 ft | 127 kts | 165° |
| 2026-05-01 10:56 | 46.93353 | 9.51329 | 8067 ft | 139 kts | 165° |
| 2026-05-01 10:57 | 46.92416 | 9.51612 | 8107 ft | 136 kts | 167° |
| 2026-05-01 10:57 | 46.91486 | 9.51433 | 8106 ft | 136 kts | 189° |
| 2026-05-01 10:57 | 46.90557 | 9.51205 | 8084 ft | 136 kts | 186° |
| 2026-05-01 10:57 | 46.89685 | 9.51024 | 8034 ft | 136 kts | 186° |
| 2026-05-01 10:58 | 46.88892 | 9.50853 | 8270 ft | 117 kts | 186° |
| 2026-05-01 10:58 | 46.88053 | 9.50672 | 8188 ft | 125 kts | 186° |
| 2026-05-01 10:58 | 46.87163 | 9.50485 | 8082 ft | 133 kts | 186° |
| 2026-05-01 10:58 | 46.86251 | 9.50293 | 8031 ft | 133 kts | 187° |
| 2026-05-01 10:59 | 46.85482 | 9.49512 | 7906 ft | 140 kts | 230° |
| 2026-05-01 10:59 | 46.84879 | 9.48400 | 7854 ft | 140 kts | 230° |
| 2026-05-01 10:59 | 46.84267 | 9.47284 | 7800 ft | 141 kts | 230° |
| 2026-05-01 10:59 | 46.83654 | 9.46165 | 7752 ft | 141 kts | 230° |
| 2026-05-01 11:00 | 46.83038 | 9.45051 | 7738 ft | 139 kts | 230° |
| 2026-05-01 11:00 | 46.82434 | 9.43961 | 7756 ft | 136 kts | 230° |
| 2026-05-01 11:00 | 46.82058 | 9.42748 | 7772 ft | 131 kts | 253° |
| 2026-05-01 11:00 | 46.81757 | 9.41447 | 7710 ft | 137 kts | 251° |
| 2026-05-01 11:01 | 46.81448 | 9.40130 | 7733 ft | 136 kts | 251° |
| 2026-05-01 11:01 | 46.81141 | 9.38806 | 7731 ft | 138 kts | 251° |
| 2026-05-01 11:01 | 46.80833 | 9.37463 | 7746 ft | 141 kts | 251° |
| 2026-05-01 11:01 | 46.80522 | 9.36100 | 7765 ft | 142 kts | 251° |
| 2026-05-01 11:02 | 46.80208 | 9.34735 | 7748 ft | 142 kts | 251° |
| 2026-05-01 11:02 | 46.79902 | 9.33405 | 7809 ft | 136 kts | 251° |
| 2026-05-01 11:02 | 46.79598 | 9.32093 | 7867 ft | 131 kts | 251° |
| 2026-05-01 11:02 | 46.79301 | 9.30829 | 7896 ft | 133 kts | 251° |
| 2026-05-01 11:03 | 46.78990 | 9.29515 | 7836 ft | 139 kts | 251° |
| 2026-05-01 11:03 | 46.78677 | 9.28191 | 7877 ft | 137 kts | 251° |
| 2026-05-01 11:03 | 46.78360 | 9.26855 | 7856 ft | 141 kts | 251° |
| 2026-05-01 11:03 | 46.78038 | 9.25503 | 7839 ft | 141 kts | 251° |
| 2026-05-01 11:04 | 46.77719 | 9.24149 | 7800 ft | 141 kts | 251° |
| 2026-05-01 11:04 | 46.77396 | 9.22796 | 7784 ft | 141 kts | 251° |
| 2026-05-01 11:04 | 46.77073 | 9.21443 | 7786 ft | 141 kts | 251° |
| 2026-05-01 11:04 | 46.76751 | 9.20096 | 7799 ft | 140 kts | 251° |
| 2026-05-01 11:05 | 46.76461 | 9.18748 | 7793 ft | 140 kts | 258° |
| 2026-05-01 11:05 | 46.76268 | 9.17357 | 7772 ft | 140 kts | 259° |
| 2026-05-01 11:05 | 46.76074 | 9.15967 | 7752 ft | 140 kts | 259° |
| 2026-05-01 11:05 | 46.75875 | 9.14570 | 7755 ft | 140 kts | 259° |
| 2026-05-01 11:06 | 46.75677 | 9.13175 | 7782 ft | 140 kts | 259° |
| 2026-05-01 11:06 | 46.75487 | 9.11787 | 7807 ft | 139 kts | 259° |
| 2026-05-01 11:06 | 46.75296 | 9.10400 | 7812 ft | 141 kts | 259° |
| 2026-05-01 11:07 | 46.74904 | 9.07600 | 7847 ft | 142 kts | 259° |
| 2026-05-01 11:07 | 46.74704 | 9.06175 | 7857 ft | 145 kts | 259° |
| 2026-05-01 11:07 | 46.74500 | 9.04725 | 7891 ft | 147 kts | 259° |
| 2026-05-01 11:07 | 46.74298 | 9.03263 | 7893 ft | 147 kts | 259° |
| 2026-05-01 11:08 | 46.74099 | 9.01800 | 7888 ft | 147 kts | 259° |
| 2026-05-01 11:08 | 46.73906 | 9.00369 | 8011 ft | 141 kts | 259° |
| 2026-05-01 11:08 | 46.73426 | 8.97711 | 8287 ft | 129 kts | 250° |
| 2026-05-01 11:09 | 46.73058 | 8.96512 | 8384 ft | 131 kts | 244° |
| 2026-05-01 11:09 | 46.72673 | 8.95361 | 8656 ft | 121 kts | 243° |
| 2026-05-01 11:09 | 46.72255 | 8.94269 | 8768 ft | 126 kts | 238° |
| 2026-05-01 11:10 | 46.71228 | 8.92186 | 9070 ft | 126 kts | 228° |
| 2026-05-01 11:10 | 46.70650 | 8.91223 | 9197 ft | 126 kts | 226° |
| 2026-05-01 11:10 | 46.70018 | 8.90318 | 9285 ft | 128 kts | 225° |
| 2026-05-01 11:10 | 46.69500 | 8.89276 | 9432 ft | 125 kts | 235° |
| 2026-05-01 11:11 | 46.69038 | 8.88203 | 9566 ft | 124 kts | 239° |
| 2026-05-01 11:11 | 46.68626 | 8.87145 | 9766 ft | 118 kts | 239° |
| 2026-05-01 11:11 | 46.68225 | 8.86111 | 9919 ft | 116 kts | 242° |
| 2026-05-01 11:11 | 46.67846 | 8.85100 | 10127 ft | 118 kts | 239° |
| 2026-05-01 11:12 | 46.67395 | 8.83988 | 10125 ft | 134 kts | 239° |
| 2026-05-01 11:12 | 46.66907 | 8.82782 | 10124 ft | 140 kts | 239° |
| 2026-05-01 11:12 | 46.66401 | 8.81535 | 10113 ft | 147 kts | 238° |
| 2026-05-01 11:12 | 46.65883 | 8.80268 | 10135 ft | 143 kts | 238° |
| 2026-05-01 11:13 | 46.65394 | 8.78992 | 10116 ft | 147 kts | 245° |
| 2026-05-01 11:13 | 46.64985 | 8.77645 | 10120 ft | 143 kts | 246° |
| 2026-05-01 11:13 | 46.64573 | 8.76303 | 10114 ft | 145 kts | 245° |
| 2026-05-01 11:13 | 46.64158 | 8.74945 | 10127 ft | 148 kts | 245° |
| 2026-05-01 11:14 | 46.63742 | 8.73584 | 10126 ft | 148 kts | 246° |
| 2026-05-01 11:14 | 46.63316 | 8.72230 | 10120 ft | 147 kts | 245° |
| 2026-05-01 11:14 | 46.62876 | 8.70878 | 10121 ft | 148 kts | 245° |
| 2026-05-01 11:14 | 46.62428 | 8.69509 | 10120 ft | 150 kts | 245° |
| 2026-05-01 11:15 | 46.61983 | 8.68135 | 10124 ft | 151 kts | 246° |
| 2026-05-01 11:15 | 46.61577 | 8.66741 | 10121 ft | 150 kts | 256° |
| 2026-05-01 11:15 | 46.61388 | 8.65339 | 10342 ft | 122 kts | 264° |
| 2026-05-01 11:15 | 46.61279 | 8.64045 | 10227 ft | 140 kts | 265° |
| 2026-05-01 11:16 | 46.61162 | 8.62553 | 10126 ft | 153 kts | 265° |
| 2026-05-01 11:16 | 46.61051 | 8.61004 | 10067 ft | 155 kts | 265° |
| 2026-05-01 11:16 | 46.60932 | 8.59465 | 10057 ft | 150 kts | 265° |
| 2026-05-01 11:16 | 46.60810 | 8.57940 | 10051 ft | 152 kts | 266° |
| 2026-05-01 11:17 | 46.60688 | 8.56450 | 10048 ft | 150 kts | 265° |
| 2026-05-01 11:17 | 46.60565 | 8.54935 | 10050 ft | 150 kts | 265° |
| 2026-05-01 11:17 | 46.60413 | 8.53446 | 10045 ft | 148 kts | 259° |
| 2026-05-01 11:17 | 46.60183 | 8.51996 | 10047 ft | 147 kts | 258° |
| 2026-05-01 11:18 | 46.59958 | 8.50552 | 10047 ft | 146 kts | 257° |
| 2026-05-01 11:18 | 46.59716 | 8.49136 | 10052 ft | 147 kts | 255° |
| 2026-05-01 11:18 | 46.59452 | 8.47686 | 10051 ft | 149 kts | 255° |
| 2026-05-01 11:18 | 46.59188 | 8.46227 | 10049 ft | 147 kts | 255° |
| 2026-05-01 11:19 | 46.58928 | 8.44800 | 10055 ft | 146 kts | 255° |
| 2026-05-01 11:19 | 46.58665 | 8.43369 | 10038 ft | 147 kts | 255° |
| 2026-05-01 11:19 | 46.58402 | 8.41937 | 10037 ft | 145 kts | 254° |
| 2026-05-01 11:19 | 46.57952 | 8.40651 | 10029 ft | 143 kts | 233° |
| 2026-05-01 11:20 | 46.57316 | 8.39544 | 9980 ft | 145 kts | 224° |
| 2026-05-01 11:20 | 46.56543 | 8.38527 | 9533 ft | 151 kts | 221° |
| 2026-05-01 11:20 | 46.55771 | 8.37555 | 9044 ft | 143 kts | 217° |
| 2026-05-01 11:20 | 46.54997 | 8.36707 | 8626 ft | 135 kts | 218° |
| 2026-05-01 11:21 | 46.54264 | 8.35903 | 8160 ft | 131 kts | 219° |
| 2026-05-01 11:21 | 46.53581 | 8.35076 | 7752 ft | 123 kts | 225° |
| 2026-05-01 11:21 | 46.53008 | 8.34279 | 7741 ft | 100 kts | 227° |
| 2026-05-01 11:21 | 46.52541 | 8.33661 | 7765 ft | 80 kts | 224° |
| 2026-05-01 11:22 | 46.52118 | 8.33106 | 7762 ft | 86 kts | 224° |
| 2026-05-01 11:22 | 46.51648 | 8.32463 | 7798 ft | 103 kts | 225° |
| 2026-05-01 11:22 | 46.51087 | 8.31699 | 7798 ft | 117 kts | 229° |
| 2026-05-01 11:22 | 46.50535 | 8.30797 | 7801 ft | 123 kts | 229° |
| 2026-05-01 11:23 | 46.49947 | 8.29856 | 7783 ft | 128 kts | 228° |
| 2026-05-01 11:23 | 46.49345 | 8.28910 | 7794 ft | 127 kts | 228° |
| 2026-05-01 11:23 | 46.48743 | 8.27961 | 7756 ft | 129 kts | 228° |
| 2026-05-01 11:23 | 46.48159 | 8.27037 | 7779 ft | 125 kts | 228° |
| 2026-05-01 11:24 | 46.47575 | 8.26117 | 7784 ft | 123 kts | 228° |
| 2026-05-01 11:24 | 46.46992 | 8.25199 | 7785 ft | 124 kts | 228° |
| 2026-05-01 11:24 | 46.45798 | 8.23323 | 7793 ft | 128 kts | 228° |
| 2026-05-01 11:25 | 46.45190 | 8.22374 | 7792 ft | 128 kts | 227° |
| 2026-05-01 11:25 | 46.43984 | 8.20456 | 7780 ft | 128 kts | 228° |
| 2026-05-01 11:25 | 46.43391 | 8.19512 | 7778 ft | 125 kts | 227° |
| 2026-05-01 11:26 | 46.42815 | 8.18581 | 7779 ft | 123 kts | 228° |
| 2026-05-01 11:26 | 46.41657 | 8.16705 | 7786 ft | 125 kts | 227° |
| 2026-05-01 11:26 | 46.41074 | 8.15763 | 7788 ft | 126 kts | 228° |
| 2026-05-01 11:27 | 46.40488 | 8.14817 | 7786 ft | 126 kts | 227° |
| 2026-05-01 11:27 | 46.39903 | 8.13883 | 7785 ft | 125 kts | 227° |
| 2026-05-01 11:27 | 46.39320 | 8.12950 | 7784 ft | 125 kts | 227° |
| 2026-05-01 11:27 | 46.38735 | 8.12018 | 7787 ft | 125 kts | 227° |
| 2026-05-01 11:28 | 46.38148 | 8.11083 | 7784 ft | 124 kts | 227° |
| 2026-05-01 11:28 | 46.37576 | 8.10178 | 7783 ft | 120 kts | 227° |
| 2026-05-01 11:28 | 46.37027 | 8.09301 | 7783 ft | 117 kts | 227° |
| 2026-05-01 11:29 | 46.35953 | 8.07579 | 7784 ft | 113 kts | 227° |
| 2026-05-01 11:29 | 46.35442 | 8.06747 | 7787 ft | 109 kts | 227° |
| 2026-05-01 11:29 | 46.34516 | 8.05015 | 7788 ft | 107 kts | 238° |
| 2026-05-01 11:30 | 46.34159 | 8.04066 | 7785 ft | 110 kts | 240° |
| 2026-05-01 11:30 | 46.33795 | 8.03106 | 7791 ft | 108 kts | 240° |
| 2026-05-01 11:30 | 46.33429 | 8.02144 | 7799 ft | 111 kts | 240° |
| 2026-05-01 11:30 | 46.33048 | 8.01143 | 7791 ft | 118 kts | 245° |
| 2026-05-01 11:31 | 46.32708 | 8.00053 | 7791 ft | 120 kts | 246° |
| 2026-05-01 11:31 | 46.32366 | 7.98953 | 7789 ft | 120 kts | 246° |
| 2026-05-01 11:31 | 46.32020 | 7.97846 | 7790 ft | 121 kts | 246° |
| 2026-05-01 11:31 | 46.31670 | 7.96735 | 7795 ft | 121 kts | 246° |
| 2026-05-01 11:32 | 46.31317 | 7.95619 | 7787 ft | 123 kts | 246° |
| 2026-05-01 11:32 | 46.30962 | 7.94498 | 7789 ft | 123 kts | 246° |
| 2026-05-01 11:32 | 46.30605 | 7.93373 | 7792 ft | 123 kts | 246° |
| 2026-05-01 11:32 | 46.30251 | 7.92255 | 7794 ft | 122 kts | 246° |
| 2026-05-01 11:33 | 46.29894 | 7.91131 | 7794 ft | 124 kts | 246° |
| 2026-05-01 11:33 | 46.29535 | 7.89997 | 7798 ft | 124 kts | 245° |
| 2026-05-01 11:33 | 46.29181 | 7.88866 | 7794 ft | 123 kts | 246° |
| 2026-05-01 11:33 | 46.28849 | 7.87731 | 7790 ft | 122 kts | 256° |
| 2026-05-01 11:34 | 46.28807 | 7.86519 | 7787 ft | 121 kts | 274° |
| 2026-05-01 11:34 | 46.28861 | 7.85306 | 7787 ft | 121 kts | 275° |
| 2026-05-01 11:34 | 46.29003 | 7.84113 | 7784 ft | 121 kts | 284° |
| 2026-05-01 11:34 | 46.29213 | 7.82953 | 7787 ft | 121 kts | 285° |
| 2026-05-01 11:35 | 46.29353 | 7.82159 | 7785 ft | 121 kts | 284° |
| 2026-05-01 11:35 | 46.29628 | 7.80603 | 7786 ft | 120 kts | 284° |
| 2026-05-01 11:35 | 46.29834 | 7.79429 | 7786 ft | 120 kts | 284° |
| 2026-05-01 11:35 | 46.30039 | 7.78252 | 7784 ft | 121 kts | 284° |
| 2026-05-01 11:36 | 46.30245 | 7.77075 | 7785 ft | 121 kts | 284° |
| 2026-05-01 11:36 | 46.30416 | 7.76312 | 7783 ft | 120 kts | 293° |
| 2026-05-01 11:36 | 46.30723 | 7.75188 | 7781 ft | 120 kts | 291° |
| 2026-05-01 11:36 | 46.31001 | 7.74036 | 7778 ft | 122 kts | 290° |
| 2026-05-01 11:37 | 46.31280 | 7.72876 | 7780 ft | 122 kts | 290° |
| 2026-05-01 11:37 | 46.31545 | 7.71787 | 7787 ft | 122 kts | 290° |
| 2026-05-01 11:37 | 46.31839 | 7.70598 | 7579 ft | 126 kts | 290° |
| 2026-05-01 11:37 | 46.32125 | 7.69383 | 7307 ft | 128 kts | 290° |
| 2026-05-01 11:38 | 46.32383 | 7.68162 | 7051 ft | 128 kts | 283° |
| 2026-05-01 11:38 | 46.32465 | 7.66871 | 6587 ft | 131 kts | 275° |
| 2026-05-01 11:38 | 46.32470 | 7.65590 | 6244 ft | 123 kts | 269° |
| 2026-05-01 11:38 | 46.32379 | 7.64380 | 5830 ft | 122 kts | 259° |
| 2026-05-01 11:39 | 46.32196 | 7.63192 | 5751 ft | 124 kts | 256° |
| 2026-05-01 11:39 | 46.31982 | 7.61972 | 5757 ft | 125 kts | 253° |
| 2026-05-01 11:39 | 46.31758 | 7.60771 | 5790 ft | 123 kts | 256° |
| 2026-05-01 11:39 | 46.31557 | 7.59564 | 5791 ft | 122 kts | 254° |
| 2026-05-01 11:40 | 46.31306 | 7.58380 | 5816 ft | 124 kts | 252° |
| 2026-05-01 11:40 | 46.31039 | 7.57211 | 5739 ft | 121 kts | 251° |
| 2026-05-01 11:40 | 46.30751 | 7.56089 | 5618 ft | 120 kts | 249° |
| 2026-05-01 11:40 | 46.30452 | 7.55005 | 5447 ft | 114 kts | 248° |
| 2026-05-01 11:41 | 46.30148 | 7.53971 | 5323 ft | 110 kts | 246° |
| 2026-05-01 11:41 | 46.29838 | 7.52969 | 5217 ft | 107 kts | 246° |
| 2026-05-01 11:41 | 46.29514 | 7.52005 | 5074 ft | 108 kts | 243° |
| 2026-05-01 11:41 | 46.29150 | 7.51022 | 4916 ft | 113 kts | 241° |
| 2026-05-01 11:42 | 46.28733 | 7.50029 | 4719 ft | 117 kts | 239° |
| 2026-05-01 11:42 | 46.28341 | 7.48980 | 4415 ft | 121 kts | 243° |
| 2026-05-01 11:42 | 46.27939 | 7.47928 | 4200 ft | 119 kts | 242° |
| 2026-05-01 11:42 | 46.27528 | 7.46904 | 3986 ft | 118 kts | 240° |
| 2026-05-01 11:43 | 46.27114 | 7.45859 | 3756 ft | 120 kts | 242° |
| 2026-05-01 11:43 | 46.26728 | 7.44807 | 3574 ft | 118 kts | 244° |
| 2026-05-01 11:43 | 46.26356 | 7.43750 | 3331 ft | 119 kts | 244° |
| 2026-05-01 11:44 | 46.25581 | 7.41612 | 2921 ft | 113 kts | 239° |
| 2026-05-01 11:44 | 46.25087 | 7.40729 | 2747 ft | 113 kts | 227° |
| 2026-05-01 11:44 | 46.24553 | 7.39930 | 2598 ft | 108 kts | 227° |
| 2026-05-01 11:44 | 46.24030 | 7.39126 | 2423 ft | 109 kts | 229° |
| 2026-05-01 11:45 | 46.23560 | 7.38323 | 2311 ft | 102 kts | 233° |
| 2026-05-01 11:45 | 46.23192 | 7.37553 | 2229 ft | 84 kts | 238° |
| 2026-05-01 11:45 | 46.22930 | 7.36865 | 2105 ft | 75 kts | 243° |
| 2026-05-01 11:45 | 46.22725 | 7.36163 | 1964 ft | 77 kts | 248° |
| 2026-05-01 11:46 | 46.22528 | 7.35446 | 1880 ft | 76 kts | 246° |
| 2026-05-01 11:46 | 46.22359 | 7.34732 | 1719 ft | 74 kts | 253° |
| 2026-05-01 11:46 | 46.22224 | 7.34060 | 1612 ft | 64 kts | 252° |
| 2026-05-01 11:46 | 46.22107 | 7.33508 | 1582 ft | 50 kts | 253° |
| 2026-05-01 11:47 | 46.22031 | 7.33150 | 1582 ft | 21 kts | 248° |
| 2026-05-01 11:47 | 46.22028 | 7.33113 | 1582 ft | 7 kts | 33° |
| 2026-05-01 11:47 | 46.22081 | 7.33110 | 1582 ft | 4 kts | 355° |
| 2026-05-01 11:47 | 46.22121 | 7.33103 | 1582 ft | 4 kts | 15° |
| 2026-05-01 11:48 | 46.22129 | 7.33118 | 1582 ft | 0 kts | 72° |
| 2026-05-01 12:02 | 46.22130 | 7.33122 | 1582 ft | 3 kts | 73° |
| 2026-05-01 12:03 | 46.22112 | 7.33176 | 1582 ft | 9 kts | 73° |
| 2026-05-01 12:03 | 46.22138 | 7.33299 | 1582 ft | 13 kts | 72° |
| 2026-05-01 12:03 | 46.22164 | 7.33402 | 1582 ft | 10 kts | 73° |
| 2026-05-01 12:03 | 46.22166 | 7.33421 | 1582 ft | 6 kts | 93° |
| 2026-05-01 12:04 | 46.22105 | 7.33458 | 1582 ft | 12 kts | 196° |
| 2026-05-01 12:04 | 46.22059 | 7.33284 | 1582 ft | 37 kts | 253° |
| 2026-05-01 12:04 | 46.21943 | 7.32732 | 1694 ft | 68 kts | 253° |
| 2026-05-01 12:04 | 46.21792 | 7.32015 | 1938 ft | 78 kts | 254° |
| 2026-05-01 12:05 | 46.21755 | 7.31226 | 2286 ft | 81 kts | 269° |
| 2026-05-01 12:05 | 46.21631 | 7.29400 | 2718 ft | 110 kts | 262° |
| 2026-05-01 12:05 | 46.21449 | 7.28309 | 3025 ft | 111 kts | 254° |
| 2026-05-01 12:06 | 46.21205 | 7.27254 | 3309 ft | 113 kts | 253° |
| 2026-05-01 12:06 | 46.20960 | 7.26173 | 3596 ft | 113 kts | 253° |
| 2026-05-01 12:06 | 46.20710 | 7.25095 | 3883 ft | 113 kts | 252° |
| 2026-05-01 12:06 | 46.20467 | 7.24030 | 4127 ft | 111 kts | 258° |
| 2026-05-01 12:07 | 46.20275 | 7.22925 | 4357 ft | 115 kts | 256° |
| 2026-05-01 12:07 | 46.19910 | 7.21891 | 4623 ft | 118 kts | 234° |
| 2026-05-01 12:07 | 46.19343 | 7.21022 | 4895 ft | 119 kts | 225° |
| 2026-05-01 12:07 | 46.18758 | 7.20194 | 5166 ft | 117 kts | 226° |
| 2026-05-01 12:08 | 46.18175 | 7.19349 | 5336 ft | 121 kts | 226° |
| 2026-05-01 12:08 | 46.17578 | 7.18466 | 5442 ft | 125 kts | 226° |
| 2026-05-01 12:08 | 46.16947 | 7.17536 | 5487 ft | 133 kts | 227° |
| 2026-05-01 12:08 | 46.16292 | 7.16567 | 5531 ft | 137 kts | 226° |
| 2026-05-01 12:09 | 46.15624 | 7.15578 | 5582 ft | 139 kts | 226° |
| 2026-05-01 12:09 | 46.14946 | 7.14578 | 5606 ft | 141 kts | 227° |
| 2026-05-01 12:09 | 46.14256 | 7.13550 | 5591 ft | 143 kts | 229° |
| 2026-05-01 12:09 | 46.13665 | 7.12415 | 5615 ft | 142 kts | 238° |
| 2026-05-01 12:10 | 46.13216 | 7.11145 | 5618 ft | 143 kts | 248° |
| 2026-05-01 12:10 | 46.13026 | 7.08326 | 5599 ft | 146 kts | 285° |
| 2026-05-01 12:10 | 46.13433 | 7.07005 | 5611 ft | 142 kts | 303° |
| 2026-05-01 12:11 | 46.14820 | 7.05046 | 5614 ft | 139 kts | 324° |
| 2026-05-01 12:11 | 46.15625 | 7.04281 | 5628 ft | 137 kts | 327° |
| 2026-05-01 12:11 | 46.16443 | 7.03590 | 5596 ft | 142 kts | 329° |
| 2026-05-01 12:12 | 46.17288 | 7.02895 | 5602 ft | 141 kts | 329° |
| 2026-05-01 12:12 | 46.18142 | 7.02193 | 5607 ft | 140 kts | 329° |
| 2026-05-01 12:12 | 46.18991 | 7.01489 | 5599 ft | 139 kts | 329° |
| 2026-05-01 12:12 | 46.19814 | 7.00801 | 5612 ft | 135 kts | 329° |
| 2026-05-01 12:13 | 46.20632 | 7.00123 | 5621 ft | 136 kts | 329° |
| 2026-05-01 12:13 | 46.21457 | 6.99435 | 5546 ft | 141 kts | 329° |
| 2026-05-01 12:13 | 46.22268 | 6.98775 | 5766 ft | 123 kts | 329° |
| 2026-05-01 12:13 | 46.23060 | 6.98121 | 5615 ft | 134 kts | 329° |
| 2026-05-01 12:14 | 46.23854 | 6.97459 | 5612 ft | 129 kts | 329° |
| 2026-05-01 12:14 | 46.24634 | 6.96817 | 5624 ft | 129 kts | 329° |
| 2026-05-01 12:14 | 46.25432 | 6.96159 | 5611 ft | 133 kts | 329° |
| 2026-05-01 12:14 | 46.26227 | 6.95498 | 5614 ft | 134 kts | 329° |
| 2026-05-01 12:15 | 46.27038 | 6.94821 | 5619 ft | 135 kts | 329° |
| 2026-05-01 12:15 | 46.27856 | 6.94140 | 5623 ft | 136 kts | 329° |
| 2026-05-01 12:15 | 46.28677 | 6.93455 | 5613 ft | 136 kts | 329° |
| 2026-05-01 12:15 | 46.29497 | 6.92779 | 5580 ft | 134 kts | 329° |
| 2026-05-01 12:16 | 46.30285 | 6.92144 | 5652 ft | 125 kts | 329° |
| 2026-05-01 12:16 | 46.31050 | 6.91509 | 5676 ft | 127 kts | 329° |
| 2026-05-01 12:16 | 46.31851 | 6.90851 | 5611 ft | 137 kts | 329° |
| 2026-05-01 12:16 | 46.32685 | 6.90175 | 5616 ft | 137 kts | 329° |
| 2026-05-01 12:17 | 46.33517 | 6.89497 | 5675 ft | 135 kts | 330° |
| 2026-05-01 12:17 | 46.34362 | 6.88782 | 5626 ft | 144 kts | 329° |
| 2026-05-01 12:17 | 46.35236 | 6.88033 | 5611 ft | 147 kts | 329° |
| 2026-05-01 12:17 | 46.36067 | 6.87234 | 5627 ft | 146 kts | 319° |
| 2026-05-01 12:18 | 46.36873 | 6.86178 | 5336 ft | 158 kts | 318° |
| 2026-05-01 12:18 | 46.37641 | 6.85098 | 5360 ft | 146 kts | 316° |
| 2026-05-01 12:18 | 46.38381 | 6.84127 | 5274 ft | 139 kts | 318° |
| 2026-05-01 12:18 | 46.39065 | 6.83204 | 4947 ft | 126 kts | 313° |
| 2026-05-01 12:19 | 46.39527 | 6.82204 | 4634 ft | 117 kts | 302° |
| 2026-05-01 12:19 | 46.39867 | 6.81187 | 4407 ft | 107 kts | 292° |
| 2026-05-01 12:19 | 46.40108 | 6.80137 | 4269 ft | 111 kts | 290° |
| 2026-05-01 12:19 | 46.40328 | 6.79071 | 4145 ft | 110 kts | 288° |
| 2026-05-01 12:20 | 46.40511 | 6.77963 | 4037 ft | 119 kts | 283° |
| 2026-05-01 12:20 | 46.40661 | 6.76703 | 3819 ft | 134 kts | 279° |
| 2026-05-01 12:20 | 46.40747 | 6.75333 | 3695 ft | 136 kts | 276° |
| 2026-05-01 12:20 | 46.40797 | 6.73983 | 3628 ft | 133 kts | 274° |
| 2026-05-01 12:21 | 46.40806 | 6.72581 | 3518 ft | 146 kts | 271° |
| 2026-05-01 12:21 | 46.40781 | 6.71095 | 3486 ft | 146 kts | 269° |
| 2026-05-01 12:21 | 46.40765 | 6.69645 | 3568 ft | 143 kts | 270° |
| 2026-05-01 12:21 | 46.40748 | 6.68200 | 3610 ft | 144 kts | 271° |
| 2026-05-01 12:22 | 46.40752 | 6.66746 | 3587 ft | 148 kts | 272° |
| 2026-05-01 12:22 | 46.40762 | 6.65745 | 3610 ft | 146 kts | 272° |
| 2026-05-01 12:22 | 46.40807 | 6.63808 | 3636 ft | 146 kts | 272° |
| 2026-05-01 12:22 | 46.40779 | 6.62329 | 3632 ft | 147 kts | 269° |
| 2026-05-01 12:23 | 46.40729 | 6.61336 | 3644 ft | 147 kts | 265° |
| 2026-05-01 12:23 | 46.40596 | 6.59872 | 3654 ft | 147 kts | 263° |
| 2026-05-01 12:23 | 46.40501 | 6.58397 | 3638 ft | 147 kts | 268° |
| 2026-05-01 12:23 | 46.40409 | 6.56935 | 3676 ft | 145 kts | 265° |
| 2026-05-01 12:24 | 46.40249 | 6.55492 | 3673 ft | 147 kts | 261° |
| 2026-05-01 12:24 | 46.40030 | 6.54057 | 3657 ft | 148 kts | 256° |
| 2026-05-01 12:24 | 46.39723 | 6.52622 | 3613 ft | 152 kts | 253° |
| 2026-05-01 12:24 | 46.39383 | 6.51217 | 3558 ft | 140 kts | 250° |
| 2026-05-01 12:25 | 46.39018 | 6.49886 | 3284 ft | 149 kts | 248° |
| 2026-05-01 12:25 | 46.38230 | 6.47116 | 3354 ft | 146 kts | 249° |
| 2026-05-01 12:25 | 46.37791 | 6.45768 | 3286 ft | 151 kts | 246° |
| 2026-05-01 12:26 | 46.37353 | 6.44398 | 3301 ft | 148 kts | 247° |
| 2026-05-01 12:26 | 46.36494 | 6.41659 | 3269 ft | 151 kts | 246° |
| 2026-05-01 12:26 | 46.36082 | 6.40292 | 3304 ft | 147 kts | 247° |
| 2026-05-01 12:27 | 46.35691 | 6.38928 | 3300 ft | 148 kts | 246° |
| 2026-05-01 12:27 | 46.34942 | 6.36204 | 3391 ft | 144 kts | 248° |
| 2026-05-01 12:28 | 46.33827 | 6.33751 | 3363 ft | 149 kts | 230° |
| 2026-05-01 12:28 | 46.33153 | 6.32598 | 3363 ft | 147 kts | 230° |
| 2026-05-01 12:28 | 46.31814 | 6.30405 | 3388 ft | 147 kts | 225° |
| 2026-05-01 12:29 | 46.31070 | 6.29375 | 3382 ft | 150 kts | 223° |
| 2026-05-01 12:29 | 46.30337 | 6.28331 | 3473 ft | 144 kts | 226° |
| 2026-05-01 12:29 | 46.28732 | 6.26539 | 3456 ft | 148 kts | 208° |
| 2026-05-01 12:30 | 46.26886 | 6.25272 | 3477 ft | 148 kts | 205° |
| 2026-05-01 12:30 | 46.25959 | 6.24578 | 3406 ft | 151 kts | 211° |
| 2026-05-01 12:30 | 46.25134 | 6.23655 | 3402 ft | 149 kts | 222° |
| 2026-05-01 12:31 | 46.24405 | 6.22632 | 3488 ft | 144 kts | 225° |
| 2026-05-01 12:31 | 46.23705 | 6.21596 | 3506 ft | 145 kts | 226° |
| 2026-05-01 12:31 | 46.23011 | 6.20520 | 3481 ft | 147 kts | 229° |
| 2026-05-01 12:31 | 46.22360 | 6.19385 | 3494 ft | 146 kts | 231° |
| 2026-05-01 12:32 | 46.21735 | 6.18228 | 3469 ft | 148 kts | 234° |
| 2026-05-01 12:32 | 46.21189 | 6.15452 | 3400 ft | 151 kts | 284° |
| 2026-05-01 12:32 | 46.21801 | 6.14246 | 3159 ft | 143 kts | 325° |
| 2026-05-01 12:33 | 46.22655 | 6.13687 | 2817 ft | 134 kts | 338° |
| 2026-05-01 12:33 | 46.23413 | 6.12892 | 2693 ft | 138 kts | 311° |
| 2026-05-01 12:33 | 46.23913 | 6.11686 | 2552 ft | 141 kts | 297° |
| 2026-05-01 12:33 | 46.24302 | 6.10374 | 2488 ft | 140 kts | 288° |
| 2026-05-01 12:34 | 46.24519 | 6.09023 | 2417 ft | 140 kts | 280° |
| 2026-05-01 12:34 | 46.24828 | 6.07733 | 2378 ft | 132 kts | 317° |
| 2026-05-01 12:34 | 46.25643 | 6.07528 | 2404 ft | 122 kts | 28° |
| 2026-05-01 12:34 | 46.26059 | 6.08507 | 2411 ft | 114 kts | 71° |
| 2026-05-01 12:35 | 46.26265 | 6.09566 | 2342 ft | 107 kts | 76° |
| 2026-05-01 12:35 | 46.26508 | 6.10571 | 2229 ft | 106 kts | 67° |
| 2026-05-01 12:35 | 46.26821 | 6.11480 | 2213 ft | 97 kts | 68° |
| 2026-05-01 12:35 | 46.26767 | 6.12344 | 2233 ft | 88 kts | 127° |
| 2026-05-01 12:36 | 46.26273 | 6.12915 | 2034 ft | 90 kts | 146° |
| 2026-05-01 12:36 | 46.25681 | 6.13230 | 1785 ft | 95 kts | 175° |
| 2026-05-01 12:36 | 46.25124 | 6.12845 | 1567 ft | 90 kts | 227° |
| 2026-05-01 12:36 | 46.24709 | 6.12224 | 1427 ft | 82 kts | 226° |
| 2026-05-01 12:37 | 46.24341 | 6.11682 | 1371 ft | 68 kts | 226° |
| 2026-05-01 12:37 | 46.24049 | 6.11252 | 1372 ft | 52 kts | 225° |
| 2026-05-01 12:37 | 46.23841 | 6.10946 | 1376 ft | 30 kts | 226° |
| 2026-05-01 12:37 | 46.23660 | 6.10680 | 1379 ft | 44 kts | 225° |
| 2026-05-01 12:38 | 46.23429 | 6.10341 | 1387 ft | 38 kts | 226° |
| 2026-05-01 12:38 | 46.23316 | 6.10170 | 1393 ft | 15 kts | 239° |
| 2026-05-01 12:38 | 46.23345 | 6.10070 | 1396 ft | 10 kts | 316° |
| 2026-05-01 12:38 | 46.23395 | 6.09999 | 1396 ft | 12 kts | 316° |
| 2026-05-01 12:39 | 46.23462 | 6.09905 | 1395 ft | 13 kts | 315° |
| 2026-05-01 12:39 | 46.23492 | 6.09865 | 1395 ft | 2 kts | 341° |
| 2026-05-01 12:39 | 46.23482 | 6.09872 | 1399 ft | 8 kts | 124° |
| 2026-05-01 12:39 | 46.23431 | 6.09947 | 1396 ft | 11 kts | 135° |
| 2026-05-01 12:40 | 46.23393 | 6.09916 | 1399 ft | 12 kts | 227° |
| 2026-05-01 12:40 | 46.23326 | 6.09817 | 1400 ft | 12 kts | 225° |
| 2026-05-01 12:40 | 46.23323 | 6.09774 | 1400 ft | 7 kts | 322° |
| 2026-05-01 12:40 | 46.23353 | 6.09762 | 1401 ft | 2 kts | 11° |
| 2026-05-01 12:41 | 46.23368 | 6.09778 | 1401 ft | 8 kts | 46° |
| 2026-05-01 12:41 | 46.23401 | 6.09782 | 1400 ft | 4 kts | 286° |
| 2026-05-01 12:41 | 46.23397 | 6.09770 | 1407 ft | 0 kts | 224° |
| 2026-05-01 12:41 | 46.23395 | 6.09767 | 1407 ft | 0 kts | 224° |
| 2026-05-01 12:50 | 0.00547 | 0.00002 | 53808 ft | 0 kts | 0° |
| 2026-05-01 12:50 | 0.00000 | 0.00000 | 1055 ft | 0 kts | 355° |
| 2026-05-01 12:51 | 0.00467 | 0.00043 | 658 ft | 113 kts | 8° |
| 2026-05-01 12:51 | 0.00974 | 0.00096 | 228 ft | 126 kts | 6° |